Black Sail — 9H9731 — position and weather

sailwx.info

Track history (hours):
 
Tides and Currents Weather Stations Pressure Air Temp Water Temp Dewpoint Dewpoint Depression Visibility Wind Speed Wind Dir Waves Ship Positions

Black Sail

Last reported at 2018-Jul-18 05:50 UTC. Time now 2018-Jul-18 14:38 UTC.
Position N 38°15' E 013°12'.

Length 43 m.

Type: Sailing vessel. MMSI: 248328000.

Date/timePositionNaut miles runAvg speedWind from/ knotsBaromVisibWave heightAir tempDewpointWater temp
2018-Jul-18 05:50N 38°15' E 013°12'4 8.0
2018-Jul-18 05:18N 38°14' E 013°18'2 5.5
2018-Jul-18 05:00N 38°14' E 013°20'6 9.5
2018-Jul-18 04:25N 38°09' E 013°23'0 0.8
2018-Jul-18 03:59N 38°09' E 013°22'0 0.0
2018-Jul-18 03:29N 38°09' E 013°22'0 0.0
2018-Jul-18 02:59N 38°09' E 013°22'0 0.0
2018-Jul-18 02:29N 38°09' E 013°22'0 0.0
2018-Jul-18 01:59N 38°09' E 013°22'0 0.0
2018-Jul-18 01:29N 38°09' E 013°22'0 0.0
2018-Jul-18 00:59N 38°09' E 013°22'0 0.0
2018-Jul-18 00:29N 38°09' E 013°22'0 0.0
2018-Jul-17 23:59N 38°09' E 013°22'0 0.0
2018-Jul-17 23:29N 38°09' E 013°22'0 0.0
2018-Jul-17 22:59N 38°09' E 013°22'0 0.0
2018-Jul-17 22:29N 38°09' E 013°22'0 0.0
2018-Jul-17 21:59N 38°09' E 013°22'0 0.0
2018-Jul-17 21:26N 38°09' E 013°22'0 0.0
2018-Jul-17 20:59N 38°09' E 013°22'0 0.0
2018-Jul-17 20:29N 38°09' E 013°22'0 0.0
2018-Jul-17 18:14N 38°09' E 013°22'0 0.0
2018-Jul-17 17:50N 38°09' E 013°22'0 0.0
2018-Jul-17 17:26N 38°09' E 013°22'0 0.0
2018-Jul-17 16:14N 38°09' E 013°22'0 0.0
2018-Jul-17 15:56N 38°09' E 013°22'0 0.0
2018-Jul-17 15:29N 38°09' E 013°22'0 0.0
2018-Jul-17 14:53N 38°09' E 013°22'0 0.0
2018-Jul-17 14:23N 38°09' E 013°22'0 0.0
2018-Jul-17 13:56N 38°09' E 013°22'0 0.0
2018-Jul-17 13:26N 38°09' E 013°22'0 0.0
2018-Jul-17 12:56N 38°09' E 013°22'0 0.0
2018-Jul-17 12:26N 38°09' E 013°22'0 0.0
2018-Jul-17 11:56N 38°09' E 013°22'0 0.0
2018-Jul-17 11:29N 38°09' E 013°22'0 0.0
2018-Jul-17 10:59N 38°09' E 013°22'0 0.0
2018-Jul-17 10:29N 38°09' E 013°22'0 0.0
2018-Jul-17 09:53N 38°09' E 013°22'0 0.2
2018-Jul-17 07:59N 38°09' E 013°23'0 0.5
2018-Jul-17 07:26N 38°09' E 013°22'0 0.0
2018-Jul-17 06:56N 38°09' E 013°22'0 0.0
2018-Jul-17 05:20N 38°09' E 013°22'0 0.0
2018-Jul-17 01:44N 38°09' E 013°22'0 0.0
2018-Jul-17 01:20N 38°09' E 013°22'0 0.0
2018-Jul-17 00:56N 38°09' E 013°22'0 0.0
2018-Jul-16 17:50N 38°09' E 013°22'2 5.6
2018-Jul-16 17:26N 38°09' E 013°25'9011.4
2018-Jul-16 09:33N 38°18' E 015°19'110.8
2018-Jul-16 09:26N 38°18' E 015°21'510.7
2018-Jul-16 09:00N 38°19' E 015°27'  
2018-Jul-10 09:30N 37°03' E 025°37'14 8.3
2018-Jul-10 07:49N 37°13' E 025°24'2 7.6
2018-Jul-10 07:30N 37°13' E 025°21'5 8.5
2018-Jul-10 06:57N 37°18' E 025°23'4 9.8
2018-Jul-10 06:30N 37°22' E 025°22'2 3.7
2018-Jul-10 05:57N 37°24' E 025°21'0 0.0
2018-Jul-10 05:30N 37°24' E 025°21'0 0.0
2018-Jul-10 04:57N 37°24' E 025°21'0 0.0
2018-Jul-10 04:24N 37°24' E 025°21'0 0.0
2018-Jul-10 03:54N 37°24' E 025°21'0 0.0
2018-Jul-10 03:30N 37°24' E 025°21'0 0.0
2018-Jul-10 03:00N 37°24' E 025°21'0 0.0
2018-Jul-10 02:30N 37°24' E 025°21'0 0.0
2018-Jul-10 01:48N 37°24' E 025°21'0 0.0
2018-Jul-10 01:30N 37°24' E 025°21'0 0.0
2018-Jul-10 01:00N 37°24' E 025°21'0 0.0
2018-Jul-10 00:18N 37°24' E 025°21'0 0.0
2018-Jul-09 23:48N 37°24' E 025°21'0 0.0
2018-Jul-09 23:24N 37°24' E 025°21'0 0.0
2018-Jul-09 22:54N 37°24' E 025°21'0 0.0
2018-Jul-09 22:24N 37°24' E 025°21'0 0.0
2018-Jul-09 22:00N 37°24' E 025°21'0 0.0
2018-Jul-09 21:24N 37°24' E 025°21'0 0.0
2018-Jul-09 20:57N 37°24' E 025°21'0 0.0
2018-Jul-09 20:30N 37°24' E 025°21'0 0.0
2018-Jul-09 19:54N 37°24' E 025°21'0 0.0
2018-Jul-09 19:30N 37°24' E 025°21'0 0.0
2018-Jul-09 19:00N 37°24' E 025°21'0 0.0
2018-Jul-09 18:24N 37°24' E 025°21'0 0.0
2018-Jul-09 17:51N 37°24' E 025°21'0 0.0
2018-Jul-09 17:30N 37°24' E 025°21'0 0.0
2018-Jul-09 17:00N 37°24' E 025°21'0 0.0
2018-Jul-09 16:15N 37°24' E 025°21'0 0.0
2018-Jul-09 16:00N 37°24' E 025°21'0 0.0
2018-Jul-09 15:09N 37°24' E 025°21'0 0.1
2018-Jul-09 15:00N 37°24' E 025°21'0 0.1
2018-Jul-09 14:24N 37°24' E 025°21'0 0.2
2018-Jul-09 14:00N 37°24' E 025°21'4 7.0
2018-Jul-09 13:29N 37°26' E 025°26'4 5.3
2018-Jul-09 12:47N 37°24' E 025°21'0 0.1
2018-Jul-09 12:27N 37°24' E 025°21'0 0.0
2018-Jul-09 11:59N 37°24' E 025°21'0 0.0
2018-Jul-09 11:20N 37°24' E 025°21'0 0.0
2018-Jul-09 10:51N 37°24' E 025°21'1 3.6
2018-Jul-09 10:28N 37°24' E 025°19'8 3.8
2018-Jul-09 08:21N 37°28' E 025°28'712.4
2018-Jul-09 07:47N 37°24' E 025°21'0 0.3
2018-Jul-09 06:45N 37°24' E 025°20'0 0.0
2018-Jul-09 06:15N 37°24' E 025°20'0 0.0
2018-Jul-09 05:57N 37°24' E 025°20'0 0.0
2018-Jul-09 05:27N 37°24' E 025°20'0 0.0
2018-Jul-09 04:57N 37°24' E 025°20'0 0.0
2018-Jul-09 03:27N 37°24' E 025°20'0 0.0
2018-Jul-09 01:36N 37°24' E 025°20'0 0.0
2018-Jul-09 01:18N 37°24' E 025°20'0 0.1
2018-Jul-09 01:00N 37°24' E 025°20'0 0.0
2018-Jul-09 00:27N 37°24' E 025°20'0 0.0
2018-Jul-08 23:48N 37°24' E 025°20'0 0.0
2018-Jul-08 23:21N 37°24' E 025°20'0 0.1
2018-Jul-08 23:00N 37°24' E 025°20'0 0.0
2018-Jul-08 21:51N 37°24' E 025°20'0 0.0
2018-Jul-08 21:24N 37°24' E 025°20'0 0.0
2018-Jul-08 20:48N 37°24' E 025°20'0 0.1
2018-Jul-08 20:30N 37°24' E 025°20'0 0.0
2018-Jul-08 19:00N 37°24' E 025°20'0 0.0
2018-Jul-08 18:30N 37°24' E 025°20'0 0.0
2018-Jul-08 17:57N 37°24' E 025°20'0 0.0
2018-Jul-08 17:21N 37°24' E 025°20'0 0.1
2018-Jul-08 16:57N 37°24' E 025°20'0 0.0
2018-Jul-08 15:24N 37°24' E 025°20'0 0.0
2018-Jul-08 14:57N 37°24' E 025°20'0 0.0
2018-Jul-08 14:30N 37°24' E 025°20'0 0.0
2018-Jul-08 13:57N 37°24' E 025°20'0 0.0
2018-Jul-08 13:27N 37°24' E 025°20'0 0.0
2018-Jul-08 12:54N 37°24' E 025°20'0 0.0
2018-Jul-08 12:15N 37°24' E 025°20'0 0.0
2018-Jul-08 11:54N 37°24' E 025°20'0 0.0
2018-Jul-08 11:12N 37°24' E 025°20'0 0.0
2018-Jul-08 10:57N 37°24' E 025°20'0 0.0
2018-Jul-08 10:24N 37°24' E 025°20'0 0.1
2018-Jul-08 09:51N 37°24' E 025°20'0 0.0
2018-Jul-08 09:30N 37°24' E 025°20'1 1.0
2018-Jul-08 08:34N 37°25' E 025°19'0 0.0
2018-Jul-08 08:15N 37°25' E 025°19'0 0.1
2018-Jul-08 07:54N 37°25' E 025°19'0 0.1
2018-Jul-08 07:24N 37°25' E 025°19'0 0.0
2018-Jul-08 06:06N 37°25' E 025°19'0 0.0
2018-Jul-08 05:54N 37°25' E 025°19'  
Track history (hours):
 
Tides and Currents Weather Stations Pressure Air Temp Water Temp Dewpoint Dewpoint Depression Visibility Wind Speed Wind Dir Waves Ship Positions

Black Sail

Last reported at 2018-Jul-18 05:50 UTC. Time now 2018-Jul-18 14:38 UTC.
Position N 38°15' E 013°12'.

Length 43 m.

Type: Sailing vessel. MMSI: 248328000.

Date/timePositionNaut miles runAvg speedWind from/ knotsBaromVisibWave heightAir tempDewpointWater temp
2018-Jul-18 05:50N 38°15' E 013°12'4 8.0
2018-Jul-18 05:18N 38°14' E 013°18'2 5.5
2018-Jul-18 05:00N 38°14' E 013°20'6 9.5
2018-Jul-18 04:25N 38°09' E 013°23'0 0.8
2018-Jul-18 03:59N 38°09' E 013°22'0 0.0
2018-Jul-18 03:29N 38°09' E 013°22'0 0.0
2018-Jul-18 02:59N 38°09' E 013°22'0 0.0
2018-Jul-18 02:29N 38°09' E 013°22'0 0.0
2018-Jul-18 01:59N 38°09' E 013°22'0 0.0
2018-Jul-18 01:29N 38°09' E 013°22'0 0.0
2018-Jul-18 00:59N 38°09' E 013°22'0 0.0
2018-Jul-18 00:29N 38°09' E 013°22'0 0.0
2018-Jul-17 23:59N 38°09' E 013°22'0 0.0
2018-Jul-17 23:29N 38°09' E 013°22'0 0.0
2018-Jul-17 22:59N 38°09' E 013°22'0 0.0
2018-Jul-17 22:29N 38°09' E 013°22'0 0.0
2018-Jul-17 21:59N 38°09' E 013°22'0 0.0
2018-Jul-17 21:26N 38°09' E 013°22'0 0.0
2018-Jul-17 20:59N 38°09' E 013°22'0 0.0
2018-Jul-17 20:29N 38°09' E 013°22'0 0.0
2018-Jul-17 18:14N 38°09' E 013°22'0 0.0
2018-Jul-17 17:50N 38°09' E 013°22'0 0.0
2018-Jul-17 17:26N 38°09' E 013°22'0 0.0
2018-Jul-17 16:14N 38°09' E 013°22'0 0.0
2018-Jul-17 15:56N 38°09' E 013°22'0 0.0
2018-Jul-17 15:29N 38°09' E 013°22'0 0.0
2018-Jul-17 14:53N 38°09' E 013°22'0 0.0
2018-Jul-17 14:23N 38°09' E 013°22'0 0.0
2018-Jul-17 13:56N 38°09' E 013°22'0 0.0
2018-Jul-17 13:26N 38°09' E 013°22'0 0.0
2018-Jul-17 12:56N 38°09' E 013°22'0 0.0
2018-Jul-17 12:26N 38°09' E 013°22'0 0.0
2018-Jul-17 11:56N 38°09' E 013°22'0 0.0
2018-Jul-17 11:29N 38°09' E 013°22'0 0.0
2018-Jul-17 10:59N 38°09' E 013°22'0 0.0
2018-Jul-17 10:29N 38°09' E 013°22'0 0.0
2018-Jul-17 09:53N 38°09' E 013°22'0 0.2
2018-Jul-17 07:59N 38°09' E 013°23'0 0.5
2018-Jul-17 07:26N 38°09' E 013°22'0 0.0
2018-Jul-17 06:56N 38°09' E 013°22'0 0.0
2018-Jul-17 05:20N 38°09' E 013°22'0 0.0
2018-Jul-17 01:44N 38°09' E 013°22'0 0.0
2018-Jul-17 01:20N 38°09' E 013°22'0 0.0
2018-Jul-17 00:56N 38°09' E 013°22'0 0.0
2018-Jul-16 17:50N 38°09' E 013°22'2 5.6
2018-Jul-16 17:26N 38°09' E 013°25'9011.4
2018-Jul-16 09:33N 38°18' E 015°19'110.8
2018-Jul-16 09:26N 38°18' E 015°21'510.7
2018-Jul-16 09:00N 38°19' E 015°27'  
2018-Jul-10 09:30N 37°03' E 025°37'14 8.3
2018-Jul-10 07:49N 37°13' E 025°24'2 7.6
2018-Jul-10 07:30N 37°13' E 025°21'5 8.5
2018-Jul-10 06:57N 37°18' E 025°23'4 9.8
2018-Jul-10 06:30N 37°22' E 025°22'2 3.7
2018-Jul-10 05:57N 37°24' E 025°21'0 0.0
2018-Jul-10 05:30N 37°24' E 025°21'0 0.0
2018-Jul-10 04:57N 37°24' E 025°21'0 0.0
2018-Jul-10 04:24N 37°24' E 025°21'0 0.0
2018-Jul-10 03:54N 37°24' E 025°21'0 0.0
2018-Jul-10 03:30N 37°24' E 025°21'0 0.0
2018-Jul-10 03:00N 37°24' E 025°21'0 0.0
2018-Jul-10 02:30N 37°24' E 025°21'0 0.0
2018-Jul-10 01:48N 37°24' E 025°21'0 0.0
2018-Jul-10 01:30N 37°24' E 025°21'0 0.0
2018-Jul-10 01:00N 37°24' E 025°21'0 0.0
2018-Jul-10 00:18N 37°24' E 025°21'0 0.0
2018-Jul-09 23:48N 37°24' E 025°21'0 0.0
2018-Jul-09 23:24N 37°24' E 025°21'0 0.0
2018-Jul-09 22:54N 37°24' E 025°21'0 0.0
2018-Jul-09 22:24N 37°24' E 025°21'0 0.0
2018-Jul-09 22:00N 37°24' E 025°21'0 0.0
2018-Jul-09 21:24N 37°24' E 025°21'0 0.0
2018-Jul-09 20:57N 37°24' E 025°21'0 0.0
2018-Jul-09 20:30N 37°24' E 025°21'0 0.0
2018-Jul-09 19:54N 37°24' E 025°21'0 0.0
2018-Jul-09 19:30N 37°24' E 025°21'0 0.0
2018-Jul-09 19:00N 37°24' E 025°21'0 0.0
2018-Jul-09 18:24N 37°24' E 025°21'0 0.0
2018-Jul-09 17:51N 37°24' E 025°21'0 0.0
2018-Jul-09 17:30N 37°24' E 025°21'0 0.0
2018-Jul-09 17:00N 37°24' E 025°21'0 0.0
2018-Jul-09 16:15N 37°24' E 025°21'0 0.0
2018-Jul-09 16:00N 37°24' E 025°21'0 0.0
2018-Jul-09 15:09N 37°24' E 025°21'0 0.1
2018-Jul-09 15:00N 37°24' E 025°21'0 0.1
2018-Jul-09 14:24N 37°24' E 025°21'0 0.2
2018-Jul-09 14:00N 37°24' E 025°21'4 7.0
2018-Jul-09 13:29N 37°26' E 025°26'4 5.3
2018-Jul-09 12:47N 37°24' E 025°21'0 0.1
2018-Jul-09 12:27N 37°24' E 025°21'0 0.0
2018-Jul-09 11:59N 37°24' E 025°21'0 0.0
2018-Jul-09 11:20N 37°24' E 025°21'0 0.0
2018-Jul-09 10:51N 37°24' E 025°21'1 3.6
2018-Jul-09 10:28N 37°24' E 025°19'8 3.8
2018-Jul-09 08:21N 37°28' E 025°28'712.4
2018-Jul-09 07:47N 37°24' E 025°21'0 0.3
2018-Jul-09 06:45N 37°24' E 025°20'0 0.0
2018-Jul-09 06:15N 37°24' E 025°20'0 0.0
2018-Jul-09 05:57N 37°24' E 025°20'0 0.0
2018-Jul-09 05:27N 37°24' E 025°20'0 0.0
2018-Jul-09 04:57N 37°24' E 025°20'0 0.0
2018-Jul-09 03:27N 37°24' E 025°20'0 0.0
2018-Jul-09 01:36N 37°24' E 025°20'0 0.0
2018-Jul-09 01:18N 37°24' E 025°20'0 0.1
2018-Jul-09 01:00N 37°24' E 025°20'0 0.0
2018-Jul-09 00:27N 37°24' E 025°20'0 0.0
2018-Jul-08 23:48N 37°24' E 025°20'0 0.0
2018-Jul-08 23:21N 37°24' E 025°20'0 0.1
2018-Jul-08 23:00N 37°24' E 025°20'0 0.0
2018-Jul-08 21:51N 37°24' E 025°20'0 0.0
2018-Jul-08 21:24N 37°24' E 025°20'0 0.0
2018-Jul-08 20:48N 37°24' E 025°20'0 0.1
2018-Jul-08 20:30N 37°24' E 025°20'0 0.0
2018-Jul-08 19:00N 37°24' E 025°20'0 0.0
2018-Jul-08 18:30N 37°24' E 025°20'0 0.0
2018-Jul-08 17:57N 37°24' E 025°20'0 0.0
2018-Jul-08 17:21N 37°24' E 025°20'0 0.1
2018-Jul-08 16:57N 37°24' E 025°20'0 0.0
2018-Jul-08 15:24N 37°24' E 025°20'0 0.0
2018-Jul-08 14:57N 37°24' E 025°20'0 0.0
2018-Jul-08 14:30N 37°24' E 025°20'0 0.0
2018-Jul-08 13:57N 37°24' E 025°20'0 0.0
2018-Jul-08 13:27N 37°24' E 025°20'0 0.0
2018-Jul-08 12:54N 37°24' E 025°20'0 0.0
2018-Jul-08 12:15N 37°24' E 025°20'0 0.0
2018-Jul-08 11:54N 37°24' E 025°20'0 0.0
2018-Jul-08 11:12N 37°24' E 025°20'0 0.0
2018-Jul-08 10:57N 37°24' E 025°20'0 0.0
2018-Jul-08 10:24N 37°24' E 025°20'0 0.1
2018-Jul-08 09:51N 37°24' E 025°20'0 0.0
2018-Jul-08 09:30N 37°24' E 025°20'1 1.0
2018-Jul-08 08:34N 37°25' E 025°19'0 0.0
2018-Jul-08 08:15N 37°25' E 025°19'0 0.1
2018-Jul-08 07:54N 37°25' E 025°19'0 0.1
2018-Jul-08 07:24N 37°25' E 025°19'0 0.0
2018-Jul-08 06:06N 37°25' E 025°19'0 0.0
2018-Jul-08 05:54N 37°25' E 025°19'  

Dump ship's entire track history